createdAt,value
2019-01-19T00:00:27.662Z,14.90
2019-01-19T00:15:47.252Z,12.47
2019-01-19T00:28:41.619Z,12.40
2019-01-19T00:33:24.646Z,13.55
2019-01-19T00:39:52.059Z,11.93
2019-01-19T00:44:05.799Z,14.55
2019-01-19T00:48:46.784Z,13.18
2019-01-19T00:53:16.795Z,12.80
2019-01-19T00:57:28.849Z,12.88
2019-01-19T01:02:06.587Z,13.43
2019-01-19T01:06:53.261Z,11.15
2019-01-19T01:11:20.829Z,13.15
2019-01-19T01:16:12.468Z,13.38
2019-01-19T01:21:04.142Z,11.57
2019-01-19T01:25:44.629Z,11.40
2019-01-19T01:30:36.540Z,16.10
2019-01-19T01:35:32.751Z,14.07
2019-01-19T01:40:19.844Z,12.10
2019-01-19T01:44:55.140Z,11.00
2019-01-19T01:51:39.963Z,12.37
2019-01-19T01:55:50.459Z,12.88
2019-01-19T02:00:42.480Z,12.43
2019-01-19T02:05:25.168Z,13.25
2019-01-19T02:23:41.070Z,16.37
2019-01-19T02:28:14.835Z,12.68
2019-01-19T02:32:48.951Z,13.20
2019-01-19T02:37:28.542Z,14.60
2019-01-19T03:04:13.842Z,10.50
2019-01-19T03:08:59.178Z,12.53
2019-01-19T03:13:56.592Z,8.13
2019-01-19T03:22:25.679Z,9.87
2019-01-19T03:29:54.920Z,9.10
2019-01-19T03:34:45.368Z,9.50
2019-01-19T03:40:07.507Z,9.63
2019-01-19T03:44:37.917Z,12.03
2019-01-19T03:50:54.947Z,11.37
2019-01-19T03:56:05.385Z,10.03
2019-01-19T04:08:42.700Z,11.47
2019-01-19T04:13:22.340Z,13.80
2019-01-19T04:17:51.659Z,8.83
2019-01-19T04:26:52.332Z,10.40
2019-01-19T04:46:23.544Z,12.47
2019-01-19T04:55:09.158Z,11.43
2019-01-19T05:02:59.207Z,15.00
2019-01-19T05:10:48.911Z,9.70
2019-01-19T05:14:53.437Z,10.63
2019-01-19T05:19:39.760Z,11.47
2019-01-19T05:23:44.599Z,10.13
2019-01-19T05:27:49.240Z,11.23
2019-01-19T05:31:53.840Z,10.13
2019-01-19T05:45:40.553Z,12.77
2019-01-19T05:53:03.140Z,9.63
2019-01-19T06:01:47.155Z,12.97
2019-01-19T06:11:31.958Z,11.97
2019-01-19T06:20:36.429Z,13.80
2019-01-19T06:24:40.983Z,11.13
2019-01-19T06:30:18.795Z,14.33
2019-01-19T06:34:49.069Z,10.90
2019-01-19T06:41:58.901Z,14.90
2019-01-19T06:55:54.998Z,12.97
2019-01-19T07:00:47.495Z,9.97
2019-01-19T07:04:52.030Z,8.50
2019-01-19T07:15:35.803Z,13.57
2019-01-19T07:22:14.280Z,12.97
2019-01-19T07:27:37.572Z,12.80
2019-01-19T07:33:09.819Z,13.93
2019-01-19T07:40:09.410Z,16.80
2019-01-19T07:46:55.957Z,13.00
2019-01-19T07:50:56.991Z,13.87
2019-01-19T07:55:16.269Z,12.77
2019-01-19T08:00:17.223Z,13.23
2019-01-19T08:08:47.691Z,10.10
2019-01-19T08:12:52.261Z,16.37
2019-01-19T08:16:56.785Z,15.80
2019-01-19T08:21:01.408Z,14.53
2019-01-19T08:25:06.866Z,12.00
2019-01-19T08:29:11.437Z,13.63
2019-01-19T08:34:20.350Z,14.63
2019-01-19T08:39:01.848Z,18.30
2019-01-19T08:43:38.245Z,22.60
2019-01-19T08:51:43.129Z,13.70
2019-01-19T09:00:52.067Z,14.63
2019-01-19T09:08:45.843Z,14.70
2019-01-19T09:19:16.557Z,10.60
2019-01-19T09:23:25.192Z,9.00
2019-01-19T09:40:15.779Z,7.47
2019-01-19T09:46:20.419Z,9.93
2019-01-19T09:50:24.939Z,9.30
2019-01-19T09:54:29.477Z,8.40
2019-01-19T09:58:33.999Z,6.57
2019-01-19T10:23:22.071Z,8.50
2019-01-19T10:27:26.608Z,7.70
2019-01-19T10:36:05.098Z,6.03
2019-01-19T10:40:11.019Z,5.27
2019-01-19T10:45:02.048Z,7.67
2019-01-19T10:58:30.195Z,2.87
2019-01-19T11:04:32.772Z,4.93
2019-01-19T11:13:41.912Z,8.20
2019-01-19T11:20:23.183Z,4.57
2019-01-19T11:24:27.729Z,5.70
2019-01-19T11:28:32.252Z,11.60
2019-01-19T11:32:36.799Z,2.77
2019-01-19T11:43:35.759Z,5.13
2019-01-19T11:48:57.091Z,5.83
2019-01-19T11:53:01.708Z,4.60
2019-01-19T11:57:06.192Z,5.23
2019-01-19T12:01:10.733Z,5.42
2019-01-19T12:05:15.868Z,4.43
2019-01-19T12:09:20.382Z,6.07
2019-01-19T12:13:24.983Z,4.47
2019-01-19T12:20:50.507Z,4.67
2019-01-19T12:24:55.048Z,4.90
2019-01-19T12:28:59.559Z,4.90
2019-01-19T12:33:04.176Z,4.80
2019-01-19T12:44:09.305Z,3.03
2019-01-19T12:49:47.527Z,3.13
2019-01-19T12:56:49.378Z,2.83
2019-01-19T13:07:03.519Z,5.07
2019-01-19T13:16:11.487Z,5.97
2019-01-19T13:30:09.609Z,8.20
2019-01-19T13:34:53.407Z,5.80
2019-01-19T13:39:35.059Z,6.10
2019-01-19T13:44:32.845Z,2.57
2019-01-19T13:49:14.299Z,4.50
2019-01-19T13:53:43.971Z,5.60
2019-01-19T13:58:16.475Z,8.60
2019-01-19T14:11:56.166Z,2.97
2019-01-19T14:17:12.987Z,8.90
2019-01-19T14:32:29.341Z,7.57
2019-01-19T14:42:21.573Z,10.27
2019-01-19T14:47:01.631Z,8.00
2019-01-19T14:57:57.149Z,10.17
2019-01-19T15:05:44.359Z,5.83
2019-01-19T15:15:26.543Z,3.47
2019-01-19T15:20:09.948Z,4.70
2019-01-19T15:24:33.117Z,10.27
2019-01-19T15:58:31.476Z,13.50
2019-01-19T16:03:07.547Z,6.53
2019-01-19T16:07:51.962Z,6.80
2019-01-19T16:12:05.612Z,6.87
2019-01-19T16:16:56.283Z,6.10
2019-01-19T16:26:55.528Z,9.23
2019-01-19T16:31:37.904Z,7.10
2019-01-19T16:36:32.487Z,8.23
2019-01-19T16:44:57.300Z,7.50
2019-01-19T16:51:48.075Z,6.97
2019-01-19T17:02:39.791Z,8.13
2019-01-19T17:07:21.954Z,14.57
2019-01-19T17:22:41.996Z,10.53
2019-01-19T17:27:17.009Z,9.03
2019-01-19T17:31:58.183Z,9.88
2019-01-19T17:36:28.599Z,14.55
2019-01-19T17:41:13.028Z,11.70
2019-01-19T17:45:48.106Z,10.97
2019-01-19T17:50:23.187Z,10.43
2019-01-19T18:03:10.250Z,9.13
2019-01-19T18:12:35.232Z,11.10
2019-01-19T18:27:52.374Z,7.57
2019-01-19T18:35:33.162Z,15.13
2019-01-19T18:40:25.711Z,13.53
2019-01-19T18:45:02.302Z,13.47
2019-01-19T18:49:51.449Z,12.77
2019-01-19T18:54:21.435Z,13.10
2019-01-19T18:59:08.921Z,10.95
2019-01-19T19:03:54.087Z,10.98
2019-01-19T19:08:34.725Z,11.33
2019-01-19T19:13:29.178Z,10.78
2019-01-19T19:18:17.899Z,15.23
2019-01-19T19:22:53.854Z,11.97
2019-01-19T19:27:28.088Z,13.85
2019-01-19T19:32:07.295Z,13.88
2019-01-19T19:36:34.895Z,13.23
2019-01-19T19:41:05.234Z,11.27
2019-01-19T19:45:42.348Z,12.85
2019-01-19T19:50:33.972Z,13.88
2019-01-19T19:54:38.504Z,11.53
2019-01-19T19:58:43.078Z,12.55
2019-01-19T20:02:47.583Z,11.22
2019-01-19T20:06:52.132Z,13.05
2019-01-19T20:10:56.661Z,14.13
2019-01-19T20:15:01.201Z,12.85
2019-01-19T20:19:05.948Z,12.60
2019-01-19T20:23:10.432Z,11.17
2019-01-19T20:27:14.959Z,14.77
2019-01-19T20:31:19.503Z,17.40
2019-01-19T20:35:24.060Z,13.30
2019-01-19T20:39:28.608Z,17.27
2019-01-19T20:43:33.236Z,14.13
2019-01-19T20:47:37.822Z,11.55
2019-01-19T20:51:42.351Z,11.57
2019-01-19T20:55:46.847Z,13.08
2019-01-19T20:59:51.394Z,14.87
2019-01-19T21:03:55.920Z,11.37
2019-01-19T21:08:00.438Z,10.05
2019-01-19T21:12:05.170Z,14.40
2019-01-19T21:16:09.704Z,13.03
2019-01-19T21:20:14.924Z,16.20
2019-01-19T21:24:19.464Z,13.05
2019-01-19T21:28:23.979Z,14.53
2019-01-19T21:32:28.483Z,12.63
2019-01-19T21:36:33.003Z,13.00
2019-01-19T21:40:39.187Z,12.18
2019-01-19T21:44:43.919Z,14.60
2019-01-19T21:48:48.602Z,10.65
2019-01-19T21:52:53.096Z,12.75
2019-01-19T21:56:57.619Z,16.00
2019-01-19T22:01:02.168Z,17.70
2019-01-19T22:05:07.446Z,14.47
2019-01-19T22:09:11.967Z,15.48
2019-01-19T22:13:16.511Z,13.55
2019-01-19T22:17:21.063Z,15.95
2019-01-19T22:21:25.600Z,16.27
2019-01-19T22:25:30.136Z,19.20
2019-01-19T22:29:34.675Z,16.90
2019-01-19T22:33:39.167Z,14.50
2019-01-19T22:37:43.744Z,16.60
2019-01-19T22:41:48.280Z,18.15
2019-01-19T22:45:52.818Z,21.48
2019-01-19T22:49:57.371Z,21.77
2019-01-19T22:54:01.919Z,21.48
2019-01-19T22:58:06.470Z,19.00
2019-01-19T23:02:12.843Z,19.10
2019-01-19T23:06:17.380Z,20.57
2019-01-19T23:10:21.895Z,16.17
2019-01-19T23:14:26.955Z,19.05
2019-01-19T23:18:31.487Z,17.87
2019-01-19T23:22:36.238Z,16.62
2019-01-19T23:26:41.078Z,19.23
2019-01-19T23:31:12.135Z,19.63
2019-01-19T23:35:34.783Z,16.13
2019-01-19T23:41:21.976Z,14.70
2019-01-19T23:46:17.937Z,19.53
2019-01-19T23:50:22.431Z,20.87
2019-01-19T23:54:26.954Z,21.27
2019-01-19T23:58:31.516Z,19.48
